Time;durP1;ratioP1;P1;durP2;ratioP2;P2;SDS_P1;SDS_P2;PMS_P1;PMS_P2;Temp;Humidity;BMP_temperature;BMP_pressure;BME280_temperature;BME280_humidity;BME280_pressure;Samples;Min_cycle;Max_cycle;Signal;HPM_P1;HPM_P2
2023/12/07 00:00:10;;;;;;;4.10;3.90;;;;;;;-0.96;100.00;101473.69;6080112;23;20620;-70
2023/12/07 00:02:37;;;;;;;8.45;7.50;;;;;;;-1.03;100.00;101470.19;6105520;23;20628;-70
2023/12/07 00:05:03;;;;;;;4.88;4.60;;;;;;;-2.16;100.00;101271.91;6081524;23;20032;-70
2023/12/07 00:07:30;;;;;;;4.72;4.35;;;;;;;-1.11;100.00;101445.22;6107873;23;20034;-70
2023/12/07 00:09:56;;;;;;;9.77;4.35;;;;;;;-0.96;100.00;101477.97;6083988;23;20017;-70
2023/12/07 00:12:23;;;;;;;4.82;4.53;;;;;;;-1.03;100.00;101487.38;6112982;23;20033;-70
2023/12/07 00:14:49;;;;;;;4.00;3.75;;;;;;;-1.73;100.00;101384.63;6073753;23;20139;-71
2023/12/07 00:17:16;;;;;;;3.92;3.67;;;;;;;-1.53;100.00;101411.41;6109736;23;20032;-71
2023/12/07 00:19:42;;;;;;;6.50;5.25;;;;;;;-1.81;100.00;101381.97;6079446;23;20101;-70
2023/12/07 00:22:09;;;;;;;6.40;5.85;;;;;;;-1.55;100.00;101419.97;6117692;23;20087;-71
2023/12/07 00:24:35;;;;;;;5.72;5.40;;;;;;;-1.36;100.00;101465.63;6086533;23;20021;-70
2023/12/07 00:27:02;;;;;;;8.20;4.75;;;;;;;-1.55;100.00;101433.69;6109530;23;20025;-71
2023/12/07 00:29:28;;;;;;;4.43;4.05;;;;;;;-2.84;100.00;101230.09;6061465;23;20025;-71
2023/12/07 00:31:54;;;;;;;6.93;4.35;;;;;;;-1.66;100.00;101427.59;6106800;23;20024;-70
2023/12/07 00:34:23;;;;;;;5.95;5.45;;;;;;;-1.39;100.00;101478.47;6082407;23;20057;-71
2023/12/07 00:36:50;;;;;;;4.47;3.97;;;;;;;-1.46;100.00;101474.13;6106490;23;20138;-71
2023/12/07 00:39:16;;;;;;;5.22;4.75;;;;;;;-1.49;100.00;101471.50;6081074;23;20060;-71
2023/12/07 00:41:43;;;;;;;4.18;3.83;;;;;;;-1.64;100.00;101451.63;6108084;23;20034;-70
2023/12/07 00:44:09;;;;;;;4.57;4.38;;;;;;;-1.57;100.00;101468.00;6077388;23;20032;-71
2023/12/07 00:46:38;;;;;;;6.47;5.97;;;;;;;-2.07;100.00;101387.69;6108216;23;20793;-70
2023/12/07 00:49:05;;;;;;;4.10;3.88;;;;;;;-1.79;100.00;101438.59;6076751;23;20539;-71
2023/12/07 00:51:31;;;;;;;5.20;4.90;;;;;;;-2.18;100.00;101375.59;6109636;23;20047;-71
2023/12/07 00:53:58;;;;;;;4.00;3.80;;;;;;;-1.63;100.00;101474.78;6069257;23;20487;-70
2023/12/07 00:56:24;;;;;;;4.10;3.83;;;;;;;-1.66;100.00;101481.63;6079638;23;20094;-70
2023/12/07 00:58:51;;;;;;;24.70;4.63;;;;;;;-1.67;100.00;101542.50;6074576;23;20738;-71
2023/12/07 01:01:17;;;;;;;4.32;3.95;;;;;;;-1.96;100.00;101425.56;6106332;23;20032;-71
2023/12/07 01:03:44;;;;;;;6.45;5.82;;;;;;;-1.69;100.00;101479.88;6082997;23;20038;-71
2023/12/07 01:06:11;;;;;;;3.97;3.78;;;;;;;-1.69;100.00;101472.16;6109088;23;20510;-70
2023/12/07 01:08:38;;;;;;;8.73;6.68;;;;;;;-2.27;100.00;101376.34;6075982;23;20035;-70
2023/12/07 01:11:05;;;;;;;5.78;5.00;;;;;;;-2.26;100.00;101391.78;6111738;23;20440;-71
2023/12/07 01:13:31;;;;;;;9.05;6.15;;;;;;;-1.86;100.00;101473.69;6076448;23;20026;-70
2023/12/07 01:15:58;;;;;;;6.28;4.20;;;;;;;-2.29;100.00;101386.59;6096092;23;20033;-70
2023/12/07 01:18:24;;;;;;;5.88;5.35;;;;;;;-2.00;100.00;101445.25;6081048;23;20029;-70
2023/12/07 01:20:51;;;;;;;4.30;3.75;;;;;;;-1.59;100.00;101500.56;6098327;23;20041;-69
2023/12/07 01:23:17;;;;;;;10.13;5.20;;;;;;;-2.26;100.00;101391.78;6054734;23;20053;-69
2023/12/07 01:25:43;;;;;;;6.18;4.57;;;;;;;-1.67;100.00;101497.91;6108631;23;20060;-71
2023/12/07 01:28:10;;;;;;;4.35;4.05;;;;;;;-2.15;100.00;101427.03;6080839;23;20041;-70
2023/12/07 01:30:36;;;;;;;5.10;4.90;;;;;;;-1.74;100.00;101502.13;6108838;23;20063;-70
2023/12/07 01:33:03;;;;;;;4.88;4.57;;;;;;;-2.50;100.00;101397.50;6081666;23;20041;-71
2023/12/07 01:35:30;;;;;;;5.22;4.88;;;;;;;-1.98;100.00;101476.97;6109563;23;20480;-70
2023/12/07 01:37:56;;;;;;;4.05;3.75;;;;;;;-2.41;100.00;101436.19;6081217;23;20083;-72
2023/12/07 01:40:23;;;;;;;4.43;4.03;;;;;;;-1.81;100.00;101508.91;6105647;23;20089;-70
2023/12/07 01:42:51;;;;;;;5.28;4.90;;;;;;;-3.75;100.00;101204.09;6073431;23;20018;-70
2023/12/07 01:45:18;;;;;;;5.63;5.05;;;;;;;-2.02;100.00;101512.09;6109754;23;20076;-70
2023/12/07 01:47:45;;;;;;;3.75;3.55;;;;;;;-3.07;100.00;101314.53;6053233;23;20501;-71
2023/12/07 01:50:15;;;;;;;3.55;3.35;;;;;;;-1.82;100.00;101530.34;6104302;23;20483;-70
2023/12/07 01:52:46;;;;;;;5.38;5.07;;;;;;;-2.03;100.00;101502.63;6077742;23;20038;-70
2023/12/07 01:55:13;;;;;;;6.45;6.03;;;;;;;-1.86;100.00;101525.16;6042997;23;20051;-70
2023/12/07 01:57:41;;;;;;;8.10;4.78;;;;;;;-2.26;100.00;101475.78;6106518;23;20021;-70
2023/12/07 02:00:09;;;;;;;4.05;3.78;;;;;;;-1.90;100.00;101536.25;6055118;23;20014;-69
2023/12/07 02:02:36;;;;;;;7.95;6.22;;;;;;;-2.29;100.00;101484.28;6101316;23;20029;-69
2023/12/07 02:05:03;;;;;;;4.80;4.35;;;;;;;-2.26;100.00;101471.50;6078997;23;20026;-70
2023/12/07 02:07:30;;;;;;;3.30;3.10;;;;;;;-2.41;100.00;101456.75;6105211;23;20038;-70
2023/12/07 02:09:58;;;;;;;7.53;6.05;;;;;;;-2.52;100.00;101440.31;6080164;23;20028;-70
2023/12/07 02:12:25;;;;;;;4.28;3.80;;;;;;;-1.89;100.00;101561.97;6109333;23;20106;-70
2023/12/07 02:14:53;;;;;;;28.52;4.55;;;;;;;-2.41;100.00;101466.13;6073214;23;20030;-70
2023/12/07 02:17:28;;;;;;;4.95;4.57;;;;;;;-1.82;100.00;101561.22;6086473;23;20096;-70
2023/12/07 02:20:10;;;;;;;4.15;3.90;;;;;;;-1.85;100.00;101561.16;6074720;23;20556;-70
2023/12/07 02:22:40;;;;;;;5.50;5.25;;;;;;;-1.94;100.00;101544.78;6109159;23;20084;-69
2023/12/07 02:25:09;;;;;;;4.82;4.43;;;;;;;-2.34;100.00;101500.53;6052320;23;20021;-70
2023/12/07 02:27:47;;;;;;;4.88;4.47;;;;;;;-1.95;100.00;101567.03;6107856;23;20030;-69
2023/12/07 02:30:14;;;;;;;19.38;18.27;;;;;;;-2.12;100.00;101533.38;5977502;23;20279;-70
2023/12/07 02:32:44;;;;;;;6.65;6.15;;;;;;;-1.97;100.00;101565.28;6088192;23;20040;-70
2023/12/07 02:35:12;;;;;;;5.35;4.95;;;;;;;-1.86;100.00;101579.16;6075688;23;20036;-70
2023/12/07 02:37:48;;;;;;;4.13;3.88;;;;;;;-1.85;100.00;101586.03;6110090;23;20026;-70
2023/12/07 02:40:18;;;;;;;5.32;4.90;;;;;;;-2.41;100.00;101485.03;6082283;23;20028;-70
2023/12/07 02:42:45;;;;;;;5.50;5.15;;;;;;;-2.68;100.00;101433.25;6104599;23;20634;-71
2023/12/07 02:45:13;;;;;;;14.05;4.63;;;;;;;-1.79;100.00;101580.97;6083319;23;20076;-71
2023/12/07 02:47:39;;;;;;;4.15;3.80;;;;;;;-1.76;100.00;101596.47;6115175;23;20096;-71
2023/12/07 02:50:07;;;;;;;3.75;3.53;;;;;;;-1.81;100.00;101567.22;6089625;23;20006;-71
2023/12/07 02:52:34;;;;;;;5.18;4.93;;;;;;;-1.74;100.00;101571.59;6111981;23;20030;-71
2023/12/07 02:55:02;;;;;;;3.88;3.65;;;;;;;-3.24;100.00;101316.88;6079942;23;20026;-71
2023/12/07 02:57:29;;;;;;;5.60;3.63;;;;;;;-1.69;100.00;101577.66;6112436;23;20038;-70
2023/12/07 02:59:56;;;;;;;5.03;4.63;;;;;;;-1.72;100.00;101564.78;6083492;23;20717;-70
2023/12/07 03:02:23;;;;;;;3.97;3.72;;;;;;;-1.59;100.00;101581.22;6106770;23;20092;-70
2023/12/07 03:04:49;;;;;;;6.68;3.85;;;;;;;-1.54;100.00;101586.41;6055483;23;20021;-72
2023/12/07 03:07:16;;;;;;;5.68;4.47;;;;;;;-1.51;100.00;101574.44;6107227;23;20029;-76
2023/12/07 03:09:42;;;;;;;4.15;3.80;;;;;;;-1.57;100.00;101558.06;6059533;23;20030;-73
2023/12/07 03:12:09;;;;;;;4.88;4.53;;;;;;;-1.67;100.00;101549.38;6116502;23;20052;-73
2023/12/07 03:14:35;;;;;;;5.97;5.40;;;;;;;-1.86;100.00;101513.13;6054407;23;20037;-73
2023/12/07 03:17:01;;;;;;;4.53;4.22;;;;;;;-1.45;100.00;101581.38;6108649;23;20089;-74
2023/12/07 03:19:28;;;;;;;4.93;4.63;;;;;;;-2.28;100.00;101462.03;6055434;23;20109;-73
2023/12/07 03:21:54;;;;;;;4.40;4.07;;;;;;;-2.25;100.00;101460.34;6109667;23;20087;-70
2023/12/07 03:24:21;;;;;;;5.07;4.68;;;;;;;-2.26;100.00;101461.22;6084026;23;20025;-70
2023/12/07 03:26:47;;;;;;;5.63;5.15;;;;;;;-1.92;100.00;101518.22;6105902;23;20029;-70
2023/12/07 03:29:14;;;;;;;4.72;4.32;;;;;;;-2.10;100.00;101499.97;6080107;23;20025;-70
2023/12/07 03:31:40;;;;;;;5.30;4.35;;;;;;;-2.01;100.00;101492.38;6108164;23;20031;-70
2023/12/07 03:34:07;;;;;;;4.88;4.38;;;;;;;-1.81;100.00;101531.19;6060995;23;20541;-70
2023/12/07 03:36:33;;;;;;;5.85;5.40;;;;;;;-1.38;100.00;101587.44;6108029;23;20029;-70
2023/12/07 03:39:00;;;;;;;4.13;3.92;;;;;;;-1.31;100.00;101595.25;6081958;23;20045;-71
2023/12/07 03:41:27;;;;;;;4.05;3.72;;;;;;;-1.81;100.00;101492.59;6112676;23;20025;-72
2023/12/07 03:43:53;;;;;;;4.05;3.80;;;;;;;-1.22;100.00;101568.78;6055572;23;20076;-69
2023/12/07 03:46:20;;;;;;;5.50;5.10;;;;;;;-1.04;100.00;101573.25;6106256;23;20041;-72
2023/12/07 03:48:46;;;;;;;4.50;4.18;;;;;;;-1.18;100.00;101573.09;6077540;23;20751;-69
2023/12/07 03:51:16;;;;;;;5.38;4.88;;;;;;;-0.79;100.00;101589.78;6109143;23;20053;-70
2023/12/07 03:53:43;;;;;;;5.70;5.18;;;;;;;-0.62;100.00;101618.28;6080652;23;20022;-70
2023/12/07 03:56:10;;;;;;;4.75;3.83;;;;;;;-0.67;100.00;101600.19;6085328;23;20025;-70
2023/12/07 03:58:36;;;;;;;7.03;6.47;;;;;;;-0.48;100.00;101621.84;6078860;23;20118;-73
2023/12/07 04:01:03;;;;;;;7.50;6.88;;;;;;;-0.97;100.00;101531.22;6105411;23;20021;-70
2023/12/07 04:03:30;;;;;;;5.82;5.22;;;;;;;-1.89;100.00;101383.59;6079496;23;20023;-73
2023/12/07 04:05:56;;;;;;;4.55;4.28;;;;;;;-0.60;100.00;101575.34;6112502;23;20102;-76
2023/12/07 04:08:23;;;;;;;4.93;4.63;;;;;;;-0.40;100.00;101609.03;6076420;23;20025;-73
2023/12/07 04:10:49;;;;;;;4.55;4.35;;;;;;;-0.88;100.00;101544.19;6087203;23;20100;-70
2023/12/07 04:13:15;;;;;;;4.13;3.83;;;;;;;-1.42;100.00;101457.84;6055457;23;20642;-70
2023/12/07 04:15:42;;;;;;;3.33;3.13;;;;;;;-1.08;100.00;101504.50;6111460;23;20042;-70
2023/12/07 04:18:08;;;;;;;4.72;4.32;;;;;;;-0.44;100.00;101622.72;6079170;23;20057;-70
2023/12/07 04:20:35;;;;;;;5.07;4.88;;;;;;;-0.44;100.00;101620.13;6106489;23;20030;-70
2023/12/07 04:23:01;;;;;;;3.53;3.33;;;;;;;-0.39;100.00;101635.66;6082589;23;20034;-70
2023/12/07 04:25:28;;;;;;;5.05;4.75;;;;;;;-0.35;100.00;101634.84;6107774;23;20088;-70
2023/12/07 04:27:54;;;;;;;3.60;3.40;;;;;;;-0.29;100.00;101635.75;6082501;23;20034;-70
2023/12/07 04:30:21;;;;;;;3.85;3.63;;;;;;;-0.25;100.00;101645.22;6106581;23;20070;-70
2023/12/07 04:32:47;;;;;;;4.30;4.00;;;;;;;-0.58;100.00;101581.38;6039848;23;20780;-69
2023/12/07 04:35:14;;;;;;;7.75;4.40;;;;;;;-0.17;100.00;101645.28;6081716;23;20019;-70
2023/12/07 04:37:40;;;;;;;5.03;4.72;;;;;;;-0.34;100.00;101626.22;6106909;23;21476;-70
2023/12/07 04:40:07;;;;;;;5.18;4.80;;;;;;;-0.31;100.00;101619.38;6082615;23;20018;-74
2023/12/07 04:42:34;;;;;;;6.03;5.68;;;;;;;-0.59;100.00;101577.06;6078709;23;20513;-70
2023/12/07 04:45:00;;;;;;;4.55;4.25;;;;;;;-0.01;100.00;101666.91;6082990;23;20037;-70
2023/12/07 04:47:27;;;;;;;4.30;4.00;;;;;;;-0.52;100.00;101568.53;6111857;23;20049;-70
2023/12/07 04:49:54;;;;;;;5.05;4.53;;;;;;;0.07;100.00;101659.22;6079452;23;20067;-70
2023/12/07 04:52:20;;;;;;;5.10;4.80;;;;;;;-0.04;100.00;101638.47;6083399;23;20049;-70
2023/12/07 04:54:47;;;;;;;5.72;5.18;;;;;;;0.11;100.00;101664.41;6077109;23;20010;-73
2023/12/07 04:57:13;;;;;;;5.45;4.82;;;;;;;0.14;100.00;101677.34;6088579;23;20025;-73
2023/12/07 04:59:39;;;;;;;4.18;3.97;;;;;;;-0.13;100.00;101620.38;6078670;23;20367;-71
2023/12/07 05:02:06;;;;;;;5.40;4.80;;;;;;;0.01;100.00;101656.59;6080763;23;20094;-70
2023/12/07 05:04:33;;;;;;;6.38;5.97;;;;;;;0.04;100.00;101654.91;6078230;23;20092;-74
2023/12/07 05:07:01;;;;;;;9.70;4.53;;;;;;;0.07;100.00;101662.66;6105461;23;20050;-70
2023/12/07 05:09:30;;;;;;;4.82;4.45;;;;;;;0.30;100.00;101686.06;6078130;23;20079;-71
2023/12/07 05:11:58;;;;;;;5.28;4.88;;;;;;;0.11;100.00;101650.66;6111884;23;20554;-74
2023/12/07 05:14:24;;;;;;;4.80;4.22;;;;;;;-0.95;100.00;101459.94;6076612;23;20072;-71
2023/12/07 05:16:55;;;;;;;5.25;4.93;;;;;;;0.47;100.00;101687.88;6089434;23;20424;-71
2023/12/07 05:19:23;;;;;;;5.43;4.90;;;;;;;0.52;100.00;101686.16;6072419;23;20056;-74
2023/12/07 05:21:50;;;;;;;8.15;5.13;;;;;;;-0.39;100.00;101556.56;6103454;23;20038;-70
2023/12/07 05:24:17;;;;;;;5.47;4.82;;;;;;;0.57;100.00;101694.78;6078984;23;20095;-70
2023/12/07 05:26:48;;;;;;;6.38;6.05;;;;;;;-0.10;100.00;101585.16;6103408;23;20033;-70
2023/12/07 05:29:15;;;;;;;8.23;5.70;;;;;;;0.51;100.00;101684.44;6079235;23;20012;-70
2023/12/07 05:31:41;;;;;;;6.07;4.28;;;;;;;0.33;100.00;101660.22;6104765;23;20706;-70
2023/12/07 05:34:08;;;;;;;9.68;4.65;;;;;;;0.35;100.00;101666.28;6054971;23;20034;-70
2023/12/07 05:36:35;;;;;;;6.78;6.20;;;;;;;0.44;100.00;101678.38;6095353;23;20021;-70
2023/12/07 05:39:01;;;;;;;5.75;4.75;;;;;;;-0.23;100.00;101591.06;6077672;23;20089;-70
2023/12/07 05:41:28;;;;;;;6.43;5.93;;;;;;;0.24;100.00;101657.63;6106966;23;20074;-71
2023/12/07 05:43:54;;;;;;;6.05;5.47;;;;;;;0.17;100.00;101656.69;6079058;23;20022;-70
2023/12/07 05:46:21;;;;;;;4.65;4.25;;;;;;;0.15;100.00;101650.66;6107568;23;20024;-71
2023/12/07 05:48:47;;;;;;;5.18;4.78;;;;;;;-1.47;100.00;101364.25;6058047;23;20008;-72
2023/12/07 05:51:16;;;;;;;6.35;4.85;;;;;;;0.19;100.00;101647.25;6106396;23;20041;-70
2023/12/07 05:53:44;;;;;;;4.75;4.35;;;;;;;0.16;100.00;101633.44;6076364;23;20594;-70
2023/12/07 05:56:13;;;;;;;5.60;5.20;;;;;;;0.12;100.00;101635.19;6105948;23;20421;-70
2023/12/07 05:58:40;;;;;;;6.22;5.72;;;;;;;0.03;100.00;101621.34;6075828;23;20037;-70
2023/12/07 06:01:07;;;;;;;5.65;5.35;;;;;;;-0.18;100.00;101589.41;6106174;23;20423;-69
2023/12/07 06:03:35;;;;;;;4.55;4.15;;;;;;;0.01;100.00;101626.50;6077986;23;20026;-73
2023/12/07 06:06:02;;;;;;;4.78;4.35;;;;;;;-0.02;100.00;101621.28;6085995;23;20477;-70
2023/12/07 06:08:28;;;;;;;5.28;4.93;;;;;;;-0.59;100.00;101519.50;6073335;23;20021;-69
2023/12/07 06:10:54;;;;;;;5.72;4.18;;;;;;;-0.68;100.00;101518.56;6109549;23;20090;-70
2023/12/07 06:13:21;;;;;;;3.35;3.05;;;;;;;-0.46;100.00;101547.94;6076959;23;20045;-70
2023/12/07 06:15:47;;;;;;;7.53;4.10;;;;;;;-0.13;100.00;101602.31;6108429;23;20060;-70
2023/12/07 06:18:14;;;;;;;3.95;3.75;;;;;;;-0.15;100.00;101602.31;6079146;23;20031;-70
2023/12/07 06:20:42;;;;;;;6.38;6.05;;;;;;;-0.63;100.00;101516.03;6096737;23;20037;-71
2023/12/07 06:23:12;;;;;;;5.60;4.15;;;;;;;-0.78;100.00;101472.09;6053833;23;20034;-70
2023/12/07 06:25:39;;;;;;;6.00;5.43;;;;;;;0.00;100.00;101601.56;6105550;23;20594;-70
2023/12/07 06:28:06;;;;;;;4.90;4.57;;;;;;;-0.11;100.00;101588.56;6077748;23;20085;-72
2023/12/07 06:30:34;;;;;;;5.53;5.13;;;;;;;-0.26;100.00;101563.56;6077734;23;20033;-68
2023/12/07 06:33:00;;;;;;;3.30;3.17;;;;;;;-0.81;100.00;101494.41;6080100;23;20025;-70
2023/12/07 06:35:27;;;;;;;4.57;4.18;;;;;;;-0.73;100.00;101506.50;6107922;23;20037;-70
2023/12/07 06:37:53;;;;;;;3.95;3.58;;;;;;;-0.49;100.00;101544.47;6072112;23;20093;-69
2023/12/07 06:40:20;;;;;;;5.15;4.75;;;;;;;-0.57;100.00;101538.41;6109566;23;20163;-70
2023/12/07 06:42:48;;;;;;;4.25;4.03;;;;;;;-1.15;100.00;101454.63;6047931;23;20014;-71
2023/12/07 06:45:14;;;;;;;4.03;3.83;;;;;;;-1.88;100.00;101327.03;6105121;23;20021;-71
2023/12/07 06:47:44;;;;;;;3.47;3.28;;;;;;;-0.99;100.00;101472.81;6080890;23;20224;-71
2023/12/07 06:50:10;;;;;;;4.07;3.88;;;;;;;-0.57;100.00;101548.72;6113816;23;20088;-71
2023/12/07 06:52:37;;;;;;;5.60;5.20;;;;;;;-1.00;100.00;101495.13;6076777;23;20062;-70
2023/12/07 06:55:05;;;;;;;4.30;3.97;;;;;;;-0.80;100.00;101533.94;6074813;23;20024;-70
2023/12/07 06:57:33;;;;;;;4.53;4.13;;;;;;;-1.43;100.00;101443.25;6078438;23;20026;-70
2023/12/07 07:00:01;;;;;;;5.47;4.25;;;;;;;-0.67;100.00;101563.25;6105076;23;20026;-70
2023/12/07 07:02:27;;;;;;;3.95;3.75;;;;;;;-1.15;100.00;101484.69;6072973;23;20034;-70
2023/12/07 07:04:54;;;;;;;3.75;3.53;;;;;;;-0.71;100.00;101562.34;6117867;23;20042;-70
2023/12/07 07:07:21;;;;;;;6.38;4.35;;;;;;;-1.23;100.00;101466.59;6082580;23;20741;-69
2023/12/07 07:09:47;;;;;;;4.45;4.15;;;;;;;-1.32;100.00;101462.22;6109460;23;20029;-70
2023/12/07 07:12:14;;;;;;;4.22;4.03;;;;;;;-1.21;100.00;101499.22;6081010;23;20026;-70
2023/12/07 07:14:41;;;;;;;6.32;5.85;;;;;;;-1.49;100.00;101476.66;6102989;23;20037;-70
2023/12/07 07:17:08;;;;;;;26.05;4.18;;;;;;;-0.93;100.00;101551.00;6077513;23;20018;-70
2023/12/07 07:19:34;;;;;;;5.45;5.00;;;;;;;-1.17;100.00;101518.16;6078273;23;20052;-70
2023/12/07 07:22:01;;;;;;;4.70;4.35;;;;;;;-1.78;100.00;101420.59;6080275;23;20099;-70
2023/12/07 07:24:28;;;;;;;4.78;4.38;;;;;;;-0.95;100.00;101557.84;6106222;23;20025;-70
2023/12/07 07:26:54;;;;;;;3.97;3.72;;;;;;;-2.12;100.00;101360.25;6054468;23;20612;-69
2023/12/07 07:29:21;;;;;;;5.10;4.60;;;;;;;-1.43;100.00;101474.13;6112071;23;20090;-69
2023/12/07 07:31:47;;;;;;;5.10;4.50;;;;;;;-1.15;100.00;101533.63;6076324;23;20099;-70
2023/12/07 07:34:14;;;;;;;4.43;4.13;;;;;;;-0.91;100.00;101559.59;6113079;23;20021;-70
2023/12/07 07:36:40;;;;;;;6.13;5.60;;;;;;;-1.20;100.00;101510.41;6053054;23;20041;-70
2023/12/07 07:39:07;;;;;;;3.85;3.55;;;;;;;-0.94;100.00;101548.41;6105662;23;20049;-68
2023/12/07 07:41:37;;;;;;;4.32;4.05;;;;;;;-2.22;100.00;101355.00;6076736;23;20076;-68
2023/12/07 07:44:03;;;;;;;4.63;4.22;;;;;;;-0.93;100.00;101545.84;6105465;23;20025;-68
2023/12/07 07:46:30;;;;;;;4.93;4.68;;;;;;;-0.85;100.00;101562.22;6079710;23;20092;-69
2023/12/07 07:48:57;;;;;;;4.18;3.90;;;;;;;-0.71;100.00;101566.66;6106544;23;20049;-70
2023/12/07 07:51:23;;;;;;;3.65;3.35;;;;;;;-0.64;100.00;101571.88;6084452;23;20026;-70
2023/12/07 07:53:50;;;;;;;3.88;3.47;;;;;;;-0.58;100.00;101578.81;6098618;23;20056;-71
2023/12/07 07:56:16;;;;;;;4.32;3.97;;;;;;;-0.70;100.00;101566.66;6077555;23;20649;-70
2023/12/07 07:58:42;;;;;;;5.93;5.53;;;;;;;-0.54;100.00;101592.56;6096883;23;20018;-70
2023/12/07 08:01:09;;;;;;;3.55;3.33;;;;;;;-0.96;100.00;101526.91;6075737;23;20495;-70
2023/12/07 08:03:38;;;;;;;4.90;3.80;;;;;;;-0.54;100.00;101595.13;6106390;23;20088;-70
2023/12/07 08:06:06;;;;;;;3.90;3.38;;;;;;;-1.01;100.00;101511.44;6075569;23;20026;-70
2023/12/07 08:08:32;;;;;;;6.00;5.70;;;;;;;-0.52;100.00;101598.59;6094234;23;20030;-70
2023/12/07 08:11:01;;;;;;;3.47;3.28;;;;;;;-0.45;100.00;101606.38;6057781;23;20021;-71
2023/12/07 08:13:28;;;;;;;3.72;3.45;;;;;;;-0.67;100.00;101560.66;6103579;23;20663;-72
2023/12/07 08:15:54;;;;;;;6.35;5.43;;;;;;;-0.40;100.00;101614.19;6083357;23;20495;-69
2023/12/07 08:18:24;;;;;;;7.18;5.47;;;;;;;-0.32;100.00;101614.22;6111717;23;20022;-69
2023/12/07 08:20:50;;;;;;;3.22;3.03;;;;;;;-1.20;100.00;101476.94;6074484;23;20021;-69
2023/12/07 08:23:17;;;;;;;4.38;4.00;;;;;;;-0.82;100.00;101515.88;6107662;23;20029;-69
2023/12/07 08:25:43;;;;;;;3.67;3.47;;;;;;;-0.26;100.00;101614.25;6075353;23;20053;-69
2023/12/07 08:28:10;;;;;;;7.30;3.88;;;;;;;-0.41;100.00;101602.97;6109814;23;20113;-70
2023/12/07 08:30:36;;;;;;;5.82;5.32;;;;;;;-0.51;100.00;101556.50;6075852;23;20081;-70
2023/12/07 08:33:03;;;;;;;4.25;3.97;;;;;;;-0.12;100.00;101622.97;6111713;23;20024;-70
2023/12/07 08:35:29;;;;;;;4.10;3.80;;;;;;;-0.08;100.00;101624.72;6080080;23;20029;-71
2023/12/07 08:37:56;;;;;;;3.97;3.75;;;;;;;-0.47;100.00;101556.53;6105603;23;20747;-70
2023/12/07 08:40:22;;;;;;;5.22;4.72;;;;;;;-0.43;100.00;101565.16;6067158;23;20082;-69
2023/12/07 08:42:49;;;;;;;4.68;4.35;;;;;;;-0.01;100.00;101634.22;6105818;23;20036;-70
2023/12/07 08:45:18;;;;;;;4.45;4.10;;;;;;;-0.06;100.00;101617.84;6078770;23;20017;-71
2023/12/07 08:47:44;;;;;;;3.30;3.10;;;;;;;0.19;100.00;101646.38;6107720;23;20093;-71
2023/12/07 08:50:11;;;;;;;5.13;4.75;;;;;;;-0.05;100.00;101604.09;6077859;23;20018;-71
2023/12/07 08:52:37;;;;;;;6.20;3.63;;;;;;;0.04;100.00;101599.84;6104976;23;20017;-71
2023/12/07 08:55:15;;;;;;;6.72;4.07;;;;;;;0.30;100.00;101638.69;6080950;23;20058;-71
2023/12/07 08:57:42;;;;;;;5.15;4.80;;;;;;;-0.04;100.00;101576.56;6108223;23;20093;-74
2023/12/07 09:00:09;;;;;;;5.68;5.18;;;;;;;0.39;100.00;101637.03;6050105;23;20017;-72
2023/12/07 09:02:38;;;;;;;4.65;4.35;;;;;;;0.22;100.00;101587.06;6103948;23;20104;-74
2023/12/07 09:05:14;;;;;;;3.90;3.70;;;;;;;0.50;100.00;101637.09;6075442;23;20092;-75
2023/12/07 09:07:40;;;;;;;3.80;3.47;;;;;;;-0.16;100.00;101515.47;6097920;23;20026;-76
2023/12/07 09:10:08;;;;;;;5.28;4.97;;;;;;;0.22;100.00;101568.97;6080770;23;20076;-71
2023/12/07 09:12:38;;;;;;;3.13;3.03;;;;;;;0.41;100.00;101581.97;6108203;23;20032;-72
2023/12/07 09:15:09;;;;;;;5.88;4.40;;;;;;;0.27;100.00;101538.88;6079447;23;20460;-71
2023/12/07 09:17:41;;;;;;;4.80;4.47;;;;;;;0.81;100.00;101603.63;6100846;23;20029;-71
2023/12/07 09:20:12;;;;;;;7.70;6.95;;;;;;;0.39;100.00;101532.88;6056323;23;20644;-72
2023/12/07 09:22:44;;;;;;;4.75;4.45;;;;;;;-0.58;100.00;101358.78;6105364;23;20041;-72
2023/12/07 09:25:12;;;;;;;3.97;3.67;;;;;;;0.41;100.00;101496.75;6080250;23;20475;-69
2023/12/07 09:27:39;;;;;;;6.68;5.25;;;;;;;0.84;100.00;101551.94;6088126;23;20503;-70
2023/12/07 09:30:12;;;;;;;4.85;4.50;;;;;;;1.08;100.00;101579.53;6077694;23;20052;-69
2023/12/07 09:32:42;;;;;;;5.70;4.65;;;;;;;1.09;100.00;101578.69;6108983;23;20033;-70
2023/12/07 09:35:14;;;;;;;4.93;4.53;;;;;;;0.79;100.00;101539.00;6075438;23;20017;-73
2023/12/07 09:37:41;;;;;;;5.30;4.53;;;;;;;0.94;100.00;101538.19;6081238;23;20026;-72
2023/12/07 09:40:17;;;;;;;6.43;6.03;;;;;;;1.30;100.00;101574.38;6076686;23;20095;-73
2023/12/07 09:42:44;;;;;;;5.53;5.15;;;;;;;1.02;100.00;101514.91;6109226;23;20037;-73
2023/12/07 09:45:11;;;;;;;5.80;5.30;;;;;;;1.01;100.00;101491.66;6078590;23;20025;-76
2023/12/07 09:47:39;;;;;;;5.13;4.82;;;;;;;1.15;100.00;101502.84;6066721;23;20589;-77
2023/12/07 09:50:11;;;;;;;7.18;6.68;;;;;;;1.27;100.00;101499.41;6106928;23;20045;-77
2023/12/07 09:52:39;;;;;;;3.78;3.58;;;;;;;0.45;100.00;101322.88;6069007;23;20033;-77
2023/12/07 09:55:09;;;;;;;4.07;3.72;;;;;;;1.22;100.00;101439.91;6083850;23;20045;-76
2023/12/07 09:57:39;;;;;;;4.28;4.07;;;;;;;1.85;100.00;101509.63;6053318;23;20091;-77
2023/12/07 10:00:10;;;;;;;8.38;7.68;;;;;;;0.56;100.00;101282.41;6090771;23;20053;-76
2023/12/07 10:02:38;;;;;;;16.20;5.57;;;;;;;1.56;100.00;101445.03;6037487;23;20093;-77
2023/12/07 10:05:05;;;;;;;5.05;4.70;;;;;;;1.29;100.00;101378.75;6106414;23;20086;-78
2023/12/07 10:07:43;;;;;;;5.43;5.00;;;;;;;2.03;100.00;101469.88;6056780;23;20037;-77
2023/12/07 10:10:13;;;;;;;7.30;6.75;;;;;;;2.02;100.00;101452.59;6107685;23;20018;-76
2023/12/07 10:13:03;;;;;;;5.72;4.85;;;;;;;1.52;100.00;101326.91;6056070;23;20021;-77
2023/12/07 10:15:30;;;;;;;5.43;5.03;;;;;;;2.26;100.00;101461.13;6108006;23;20014;-76
2023/12/07 10:17:59;;;;;;;4.53;4.25;;;;;;;2.33;100.00;101426.56;6073517;23;20030;-75
2023/12/07 10:20:28;;;;;;;5.95;5.30;;;;;;;2.39;100.00;101401.47;6109441;23;20037;-76
2023/12/07 10:23:05;;;;;;;6.22;5.70;;;;;;;2.09;100.00;101324.00;6071935;23;20346;-76
2023/12/07 10:25:34;;;;;;;6.43;6.00;;;;;;;2.38;100.00;101340.16;6109568;23;20082;-77
2023/12/07 10:28:06;;;;;;;5.95;5.40;;;;;;;2.59;100.00;101340.88;6077997;23;20075;-78
2023/12/07 10:30:34;;;;;;;6.35;5.68;;;;;;;2.37;100.00;101286.66;6107368;23;20087;-77
2023/12/07 10:33:04;;;;;;;4.82;4.53;;;;;;;1.04;100.00;101125.47;6082392;23;20046;-77
2023/12/07 10:35:31;;;;;;;4.53;4.13;;;;;;;2.62;100.00;101263.09;6104811;23;20026;-75
2023/12/07 10:37:58;;;;;;;6.88;4.38;;;;;;;2.73;100.00;101271.63;6056596;23;20038;-76
2023/12/07 10:40:24;;;;;;;8.05;7.00;;;;;;;1.19;100.00;101010.81;6079465;23;20179;-76
2023/12/07 10:42:57;;;;;;;5.43;4.95;;;;;;;2.05;100.00;101104.84;6059608;23;20036;-75
2023/12/07 10:45:25;;;;;;;;;;;;;;;2.94;100.00;101212.63;6108574;23;20018;-75
2023/12/07 10:47:53;;;;;;;3.92;3.63;;;;;;;2.92;100.00;101180.69;6076463;23;20041;-76
2023/12/07 10:50:23;;;;;;;5.50;5.10;;;;;;;2.81;100.00;101136.75;6103649;23;20187;-75
2023/12/07 10:52:54;;;;;;;7.38;5.80;;;;;;;2.77;100.00;101106.59;6072235;23;20030;-77
2023/12/07 10:55:25;;;;;;;5.22;4.93;;;;;;;2.57;100.00;101091.28;6069179;23;20036;-76
2023/12/07 10:57:54;;;;;;;6.85;5.13;;;;;;;3.03;100.00;101087.19;6106283;23;20082;-76
2023/12/07 11:00:27;;;;;;;5.78;5.43;;;;;;;2.34;100.00;100965.50;6081723;23;20190;-76
2023/12/07 11:03:10;;;;;;;10.07;5.90;;;;;;;2.97;100.00;101020.75;6083964;23;20522;-76
2023/12/07 11:05:37;;;;;;;5.85;5.30;;;;;;;1.67;100.00;100799.06;6063525;23;20026;-76
2023/12/07 11:08:11;;;;;;;6.18;5.60;;;;;;;2.90;100.00;100956.91;6103735;23;20029;-77
2023/12/07 11:10:53;;;;;;;7.90;5.38;;;;;;;3.18;100.00;100952.13;6084730;23;20037;-76
2023/12/07 11:13:30;;;;;;;6.03;5.45;;;;;;;2.58;100.00;100816.63;6110084;23;20068;-77
2023/12/07 11:15:57;;;;;;;5.95;5.28;;;;;;;3.28;100.00;100912.16;6082048;23;20038;-75
2023/12/07 11:18:28;;;;;;;3.85;3.65;;;;;;;3.09;100.00;100864.97;6111887;23;20029;-75
2023/12/07 11:20:56;;;;;;;6.05;5.55;;;;;;;2.53;100.00;100789.13;6059098;23;20038;-76